Time;durP1;ratioP1;P1;durP2;ratioP2;P2;SDS_P1;SDS_P2;PMS_P1;PMS_P2;Temp;Humidity;BMP_temperature;BMP_pressure;BME280_temperature;BME280_humidity;BME280_pressure;Samples;Min_cycle;Max_cycle;Signal;HPM_P1;HPM_P2
2023/08/17 00:00:18;;;;;;;9.68;7.63;;;;;;;-142.57;59.28;115900.28;5014493;28;20034;-84
2023/08/17 00:02:46;;;;;;;14.38;7.40;;;;;;;-142.57;60.23;115900.28;5014226;28;20034;-84
2023/08/17 00:05:14;;;;;;;13.15;7.70;;;;;;;-142.57;61.79;115900.28;5016122;28;20029;-84
2023/08/17 00:07:40;;;;;;;11.02;8.30;;;;;;;-142.57;61.84;115900.28;5015211;28;20038;-83
2023/08/17 00:10:06;;;;;;;15.73;7.80;;;;;;;-142.57;62.03;115900.28;5014226;28;20096;-80
2023/08/17 00:12:31;;;;;;;11.35;7.95;;;;;;;-142.57;62.44;115900.28;5014774;28;20053;-82
2023/08/17 00:14:57;;;;;;;9.80;7.50;;;;;;;-142.57;62.64;115900.28;5014934;28;20030;-81
2023/08/17 00:17:22;;;;;;;9.98;8.18;;;;;;;-142.57;62.87;115900.28;5013219;28;20033;-83
2023/08/17 00:19:48;;;;;;;11.35;7.68;;;;;;;-142.57;62.68;115900.28;5014502;28;20040;-82
2023/08/17 00:22:14;;;;;;;20.40;7.53;;;;;;;-142.57;62.93;115900.28;5021437;28;20044;-84
2023/08/17 00:24:45;;;;;;;11.48;7.53;;;;;;;-142.57;63.18;115900.28;5014569;28;20404;-85
2023/08/17 00:27:11;;;;;;;10.73;7.88;;;;;;;-142.57;62.91;115900.28;5013998;28;20034;-82
2023/08/17 00:29:37;;;;;;;16.33;8.05;;;;;;;-142.57;62.91;115900.28;5013101;28;20088;-80
2023/08/17 00:32:03;;;;;;;9.90;7.93;;;;;;;-142.57;62.99;115900.28;5017364;28;20072;-83
2023/08/17 00:34:30;;;;;;;12.07;8.05;;;;;;;-142.57;62.95;115900.28;5034000;28;20030;-81
2023/08/17 00:36:55;;;;;;;10.90;8.13;;;;;;;-142.57;63.48;115900.28;5036838;28;20045;-81
2023/08/17 00:39:21;;;;;;;8.93;7.97;;;;;;;-142.57;63.45;115900.28;5030034;28;20034;-85
2023/08/17 00:41:46;;;;;;;10.52;7.80;;;;;;;-142.57;62.91;115900.28;5037605;28;20021;-82
2023/08/17 00:44:12;;;;;;;11.27;7.78;;;;;;;-142.57;62.54;115900.28;5033642;28;20712;-82
2023/08/17 00:46:38;;;;;;;10.63;8.27;;;;;;;-142.57;62.04;115900.28;5014426;28;20500;-82
2023/08/17 00:49:05;;;;;;;14.55;8.80;;;;;;;-142.57;62.72;115900.28;5014779;28;20052;-81
2023/08/17 00:51:33;;;;;;;11.18;9.25;;;;;;;-142.57;62.77;115900.28;5015453;28;20034;-82
2023/08/17 00:54:01;;;;;;;16.55;8.93;;;;;;;-142.57;63.58;115900.28;5004044;28;20485;-82
2023/08/17 00:56:27;;;;;;;16.17;8.65;;;;;;;-142.57;64.37;115900.28;5017181;28;20030;-81
2023/08/17 00:58:53;;;;;;;21.60;9.88;;;;;;;-142.57;65.12;115900.28;5017448;28;20045;-82
2023/08/17 01:01:20;;;;;;;16.45;10.30;;;;;;;-142.57;65.21;115900.28;5016559;28;20443;-81
2023/08/17 01:03:46;;;;;;;18.60;10.68;;;;;;;-142.57;65.56;115900.28;5018012;28;20045;-81
2023/08/17 01:06:13;;;;;;;20.10;11.85;;;;;;;-142.57;65.98;115900.28;5019668;28;20022;-82
2023/08/17 01:08:40;;;;;;;17.70;10.85;;;;;;;-142.57;65.92;115900.28;5022853;28;20030;-81
2023/08/17 01:11:36;;;;;;;16.13;11.50;;;;;;;-142.57;66.18;115900.28;5017384;28;20033;-82
2023/08/17 01:14:39;;;;;;;19.95;11.15;;;;;;;-142.57;66.24;115900.28;5030835;28;20046;-85
2023/08/17 01:17:18;;;;;;;15.90;10.02;;;;;;;-142.57;65.99;115900.28;4956187;29;20043;-85
2023/08/17 01:19:45;;;;;;;18.13;10.18;;;;;;;-142.57;65.72;115900.28;4940244;29;20051;-80
2023/08/17 01:22:17;;;;;;;19.35;11.25;;;;;;;-142.57;66.02;115900.28;4961559;28;20023;-87
2023/08/17 01:24:43;;;;;;;16.17;11.23;;;;;;;-142.57;65.84;115900.28;4955977;29;20127;-85
2023/08/17 01:27:09;;;;;;;17.05;11.70;;;;;;;-142.57;66.00;115900.28;4940414;29;20597;-85
2023/08/17 01:29:35;;;;;;;20.08;12.57;;;;;;;-142.57;66.23;115900.28;4956284;29;20039;-85
2023/08/17 01:32:23;;;;;;;17.30;12.30;;;;;;;-142.57;66.25;115900.28;4978254;28;20050;-83
2023/08/17 01:35:01;;;;;;;18.77;12.95;;;;;;;-142.57;65.68;115900.28;5017458;28;20038;-85
2023/08/17 01:37:31;;;;;;;19.27;12.18;;;;;;;-142.57;65.81;115900.28;5003768;28;20034;-83
2023/08/17 01:39:59;;;;;;;15.68;10.60;;;;;;;-142.57;65.96;115900.28;5024891;28;20034;-83
2023/08/17 01:42:25;;;;;;;17.50;11.40;;;;;;;-142.57;66.43;115900.28;5027714;28;20041;-81
2023/08/17 01:44:54;;;;;;;13.45;11.10;;;;;;;-142.57;66.79;115900.28;5025671;28;20062;-81
2023/08/17 01:47:22;;;;;;;21.63;10.85;;;;;;;-142.57;66.54;115900.28;5024529;28;20145;-82
2023/08/17 01:49:48;;;;;;;15.30;10.80;;;;;;;-142.57;66.04;115900.28;5019863;28;20473;-83
2023/08/17 01:52:14;;;;;;;21.00;10.82;;;;;;;-142.57;67.15;115900.28;5026018;28;20041;-81
2023/08/17 01:54:40;;;;;;;15.52;10.55;;;;;;;-142.57;67.02;115900.28;5021748;28;20183;-81
2023/08/17 01:57:05;;;;;;;13.57;10.77;;;;;;;-142.57;67.52;115900.28;5022227;28;20117;-81
2023/08/17 01:59:34;;;;;;;17.77;10.63;;;;;;;-142.57;67.56;115900.28;5021610;28;20377;-83
2023/08/17 02:01:59;;;;;;;18.45;10.75;;;;;;;-142.57;67.40;115900.28;5020802;28;20068;-82
2023/08/17 02:04:26;;;;;;;13.45;10.25;;;;;;;-142.57;67.53;115900.28;5023550;28;20041;-81
2023/08/17 02:06:54;;;;;;;21.20;11.20;;;;;;;-142.57;67.58;115900.28;5030108;28;20044;-79
2023/08/17 02:09:20;;;;;;;13.65;10.50;;;;;;;-142.57;67.40;115900.28;5029810;28;20038;-81
2023/08/17 02:11:45;;;;;;;12.43;9.18;;;;;;;-142.57;67.35;115900.28;5026473;28;20060;-82
2023/08/17 02:14:12;;;;;;;16.67;9.73;;;;;;;-142.57;66.84;115900.28;5019112;28;20084;-84
2023/08/17 02:16:38;;;;;;;18.10;9.05;;;;;;;-142.57;66.98;115900.28;5022784;28;20042;-81
2023/08/17 02:19:03;;;;;;;16.70;8.35;;;;;;;-142.57;66.67;115900.28;5022916;28;20038;-82
2023/08/17 02:21:32;;;;;;;18.95;8.23;;;;;;;-142.57;66.50;115900.28;5023487;28;20045;-81
2023/08/17 02:23:58;;;;;;;17.70;8.23;;;;;;;-142.57;66.12;115900.28;5025233;28;20030;-82
2023/08/17 02:26:23;;;;;;;13.98;7.57;;;;;;;-142.57;66.12;115900.28;5026119;28;20040;-81
2023/08/17 02:28:49;;;;;;;17.83;7.70;;;;;;;-142.57;66.04;115900.28;5026059;28;20049;-82
2023/08/17 02:31:14;;;;;;;10.68;7.15;;;;;;;-142.57;65.75;115900.28;5024931;28;20530;-82
2023/08/17 02:33:40;;;;;;;13.98;7.38;;;;;;;-142.57;65.26;115900.28;5024319;28;20546;-81
2023/08/17 02:36:06;;;;;;;10.93;7.40;;;;;;;-142.57;65.73;115900.28;5023731;28;20056;-81
2023/08/17 02:38:31;;;;;;;13.52;7.70;;;;;;;-142.57;65.62;115900.28;5027037;28;20121;-82
2023/08/17 02:40:57;;;;;;;11.43;6.68;;;;;;;-142.57;65.94;115900.28;5024610;28;20033;-84
2023/08/17 02:43:23;;;;;;;11.18;6.28;;;;;;;-142.57;65.73;115900.28;5024507;28;20044;-83
2023/08/17 02:45:50;;;;;;;15.60;6.85;;;;;;;-142.57;65.64;115900.28;5023014;28;20030;-83
2023/08/17 02:48:21;;;;;;;15.18;7.20;;;;;;;-142.57;65.61;115900.28;5022069;28;20034;-82
2023/08/17 02:50:47;;;;;;;7.13;5.22;;;;;;;-142.57;65.56;115900.28;5022401;28;20041;-82
2023/08/17 02:53:12;;;;;;;11.35;7.30;;;;;;;-142.57;65.68;115900.28;5023572;28;20041;-83
2023/08/17 02:55:38;;;;;;;14.57;7.00;;;;;;;-142.57;65.24;115900.28;5022164;28;20069;-82
2023/08/17 02:58:04;;;;;;;11.35;6.72;;;;;;;-142.57;65.39;115900.28;5023413;28;20144;-82
2023/08/17 03:00:30;;;;;;;14.85;6.93;;;;;;;-142.57;65.33;115900.28;5022559;28;20038;-81
2023/08/17 03:02:56;;;;;;;13.55;6.95;;;;;;;-142.57;65.12;115900.28;5020229;28;20156;-82
2023/08/17 03:05:22;;;;;;;12.48;7.20;;;;;;;-142.57;65.33;115900.28;5018540;28;20070;-83
2023/08/17 03:07:50;;;;;;;9.48;7.20;;;;;;;-142.57;65.14;115900.28;5017556;28;20030;-83
2023/08/17 03:10:16;;;;;;;11.25;6.47;;;;;;;-142.57;65.18;115900.28;5017389;28;20097;-83
2023/08/17 03:12:42;;;;;;;8.93;6.38;;;;;;;-142.57;65.27;115900.28;5016069;28;20045;-82
2023/08/17 03:15:08;;;;;;;11.38;6.32;;;;;;;-142.57;65.43;115900.28;5018247;28;20034;-82
2023/08/17 03:17:39;;;;;;;14.30;6.80;;;;;;;-142.57;64.87;115900.28;5016898;28;20455;-82
2023/08/17 03:20:06;;;;;;;9.27;6.28;;;;;;;-142.57;65.04;115900.28;5017962;28;20082;-83
2023/08/17 03:22:32;;;;;;;12.98;6.97;;;;;;;-142.57;64.92;115900.28;5017569;28;20041;-84
2023/08/17 03:24:58;;;;;;;14.07;6.70;;;;;;;-142.57;64.96;115900.28;5018099;28;20040;-82
2023/08/17 03:27:24;;;;;;;10.73;6.60;;;;;;;-142.57;65.06;115900.28;5023766;28;20058;-81
2023/08/17 03:29:51;;;;;;;10.75;6.72;;;;;;;-142.57;65.06;115900.28;5024315;28;20441;-81
2023/08/17 03:32:17;;;;;;;12.73;6.40;;;;;;;-142.57;65.18;115900.28;5027870;28;20062;-82
2023/08/17 03:34:44;;;;;;;13.38;6.28;;;;;;;-142.57;64.70;115900.28;5021206;28;20033;-82
2023/08/17 03:37:10;;;;;;;18.13;6.25;;;;;;;-142.57;65.14;115900.28;5015416;28;20072;-81
2023/08/17 03:39:35;;;;;;;13.88;6.18;;;;;;;-142.57;65.12;115900.28;5026470;28;20037;-83
2023/08/17 03:42:01;;;;;;;8.07;6.45;;;;;;;-142.57;64.85;115900.28;5030898;28;20042;-82
2023/08/17 03:44:31;;;;;;;17.27;6.15;;;;;;;-142.57;65.34;115900.28;5037480;28;20026;-83
2023/08/17 03:46:56;;;;;;;8.88;5.78;;;;;;;-142.57;65.54;115900.28;5021118;28;20044;-87
2023/08/17 03:49:22;;;;;;;9.05;6.07;;;;;;;-142.57;65.52;115900.28;5038007;28;20025;-83
2023/08/17 03:51:48;;;;;;;7.97;6.50;;;;;;;-142.57;65.14;115900.28;5023090;28;20042;-83
2023/08/17 03:54:15;;;;;;;11.52;6.75;;;;;;;-142.57;65.58;115900.28;5014423;28;20049;-84
2023/08/17 03:56:40;;;;;;;8.60;6.43;;;;;;;-142.57;66.37;115900.28;5014662;28;20195;-83
2023/08/17 03:59:06;;;;;;;12.98;6.50;;;;;;;-142.57;65.94;115900.28;5015266;28;20467;-86
2023/08/17 04:01:32;;;;;;;8.80;6.43;;;;;;;-142.57;65.86;115900.28;5014933;28;20045;-83
2023/08/17 04:03:57;;;;;;;13.75;7.00;;;;;;;-142.57;66.50;115900.28;5014398;28;20030;-81
2023/08/17 04:06:23;;;;;;;11.50;6.95;;;;;;;-142.57;66.18;115900.28;4996839;28;20069;-83
2023/08/17 04:08:48;;;;;;;10.23;6.78;;;;;;;-142.57;66.04;115900.28;5013048;28;20045;-82
2023/08/17 04:11:14;;;;;;;11.05;5.93;;;;;;;-142.57;67.25;115900.28;5014783;28;20025;-83
2023/08/17 04:13:42;;;;;;;9.93;6.60;;;;;;;-142.57;68.58;115900.28;5013558;28;20038;-83
2023/08/17 04:16:08;;;;;;;14.00;7.05;;;;;;;-142.57;69.27;115900.28;5014085;28;20505;-82
2023/08/17 04:18:34;;;;;;;15.30;7.57;;;;;;;-142.57;69.67;115900.28;5013288;28;20436;-82
2023/08/17 04:20:59;;;;;;;12.40;7.30;;;;;;;-142.57;69.69;115900.28;5013879;28;20067;-83
2023/08/17 04:23:25;;;;;;;9.13;6.93;;;;;;;-142.57;69.56;115900.28;5012257;28;20121;-82
2023/08/17 04:25:50;;;;;;;12.38;7.32;;;;;;;-142.57;68.94;115900.28;5012149;28;20069;-83
2023/08/17 04:28:19;;;;;;;9.52;7.35;;;;;;;-142.57;68.56;115900.28;5013797;28;20061;-83
2023/08/17 04:30:45;;;;;;;12.75;6.97;;;;;;;-142.57;68.66;115900.28;5015270;28;20496;-82
2023/08/17 04:33:12;;;;;;;9.52;6.70;;;;;;;-142.57;68.64;115900.28;5017019;28;20025;-83
2023/08/17 04:35:39;;;;;;;14.43;7.63;;;;;;;-142.57;69.62;115900.28;5016439;28;20034;-82
2023/08/17 04:38:05;;;;;;;16.98;7.97;;;;;;;-142.57;69.51;115900.28;5016456;28;20037;-83
2023/08/17 04:40:31;;;;;;;14.75;8.10;;;;;;;-142.57;68.62;115900.28;5017668;28;20025;-81
2023/08/17 04:42:58;;;;;;;10.63;7.97;;;;;;;-142.57;69.19;115900.28;5015922;28;20038;-83
2023/08/17 04:45:25;;;;;;;11.93;7.82;;;;;;;-142.57;69.83;115900.28;5016254;28;20030;-83
2023/08/17 04:47:51;;;;;;;13.05;8.07;;;;;;;-142.57;70.42;115900.28;5015921;28;20396;-82
2023/08/17 04:50:17;;;;;;;19.90;8.60;;;;;;;-142.57;70.70;115900.28;5016179;28;20046;-83
2023/08/17 04:52:44;;;;;;;10.55;7.95;;;;;;;-142.57;71.07;115900.28;5016672;28;20034;-81
2023/08/17 04:55:09;;;;;;;14.20;7.78;;;;;;;-142.57;70.96;115900.28;5016824;28;20034;-82
2023/08/17 04:57:35;;;;;;;21.30;8.93;;;;;;;-142.57;71.28;115900.28;5018591;28;20033;-84
2023/08/17 05:00:01;;;;;;;10.13;8.02;;;;;;;-142.57;71.94;115900.28;5017368;28;20481;-85
2023/08/17 05:02:28;;;;;;;10.85;7.75;;;;;;;-142.57;71.83;115900.28;5017947;28;20041;-85
2023/08/17 05:04:54;;;;;;;12.90;7.07;;;;;;;-142.57;71.52;115900.28;5018393;28;20030;-84
2023/08/17 05:07:20;;;;;;;13.95;8.02;;;;;;;-142.57;71.13;115900.28;5022567;28;20484;-81
2023/08/17 05:09:46;;;;;;;13.88;7.20;;;;;;;-142.57;71.24;115900.28;5022873;28;20033;-81
2023/08/17 05:12:11;;;;;;;19.48;7.93;;;;;;;-142.57;71.30;115900.28;5023600;28;20033;-83
2023/08/17 05:14:37;;;;;;;12.45;6.72;;;;;;;-142.57;70.84;115900.28;5020996;28;20034;-83
2023/08/17 05:17:03;;;;;;;14.98;7.03;;;;;;;-142.57;70.16;115900.28;5024540;28;20069;-85
2023/08/17 05:19:28;;;;;;;13.02;6.80;;;;;;;-142.57;69.12;115900.28;5026968;28;20029;-84
2023/08/17 05:21:55;;;;;;;18.45;6.88;;;;;;;-142.57;68.36;115900.28;5027864;28;20173;-88
2023/08/17 05:24:23;;;;;;;12.65;6.22;;;;;;;-142.57;67.66;115900.28;5025205;28;20041;-87
2023/08/17 05:26:49;;;;;;;9.77;5.72;;;;;;;-142.57;67.12;115900.28;5019322;28;20059;-84
2023/08/17 05:29:18;;;;;;;7.38;5.25;;;;;;;-142.57;65.92;115900.28;5018794;28;20049;-88
2023/08/17 05:31:43;;;;;;;11.93;5.03;;;;;;;-142.57;64.81;115900.28;5024616;28;20165;-87
2023/08/17 05:34:10;;;;;;;7.57;4.60;;;;;;;-142.57;63.64;115900.28;5022741;28;20033;-88
2023/08/17 05:36:40;;;;;;;8.07;4.30;;;;;;;-142.57;63.08;115900.28;5021042;28;20097;-88
2023/08/17 05:39:09;;;;;;;;;;;;;;;-142.57;61.73;115900.28;5022536;28;20034;-86
2023/08/17 05:41:35;;;;;;;12.48;4.53;;;;;;;-142.57;60.38;115900.28;5044688;28;19921;-87
2023/08/17 05:44:02;;;;;;;8.75;3.70;;;;;;;-142.57;59.32;115900.28;5032671;28;20021;-88
2023/08/17 05:46:34;;;;;;;12.75;4.28;;;;;;;-142.57;58.02;115900.28;5034813;28;20030;-91
2023/08/17 05:49:01;;;;;;;5.32;3.65;;;;;;;-142.57;57.17;115900.28;5033840;28;20079;-85
2023/08/17 05:51:29;;;;;;;7.22;3.55;;;;;;;-142.57;56.12;115900.28;5009727;28;20046;-86
2023/08/17 05:53:56;;;;;;;4.78;3.30;;;;;;;-142.57;55.60;115900.28;5001765;28;20032;-90
2023/08/17 05:56:22;;;;;;;10.30;3.60;;;;;;;-142.57;53.45;115900.28;5034403;28;20006;-90
2023/08/17 05:58:48;;;;;;;6.63;3.28;;;;;;;-142.57;53.21;115900.28;5031939;28;20037;-91
2023/08/17 06:01:14;;;;;;;9.27;3.30;;;;;;;-142.57;51.15;115900.28;5030385;28;20084;-86
2023/08/17 06:03:40;;;;;;;9.75;3.20;;;;;;;-142.57;51.16;115900.28;5020527;28;20045;-91
2023/08/17 06:06:10;;;;;;;13.15;3.30;;;;;;;-142.57;49.59;115900.28;5039695;28;20124;-89
2023/08/17 06:08:38;;;;;;;12.98;3.03;;;;;;;-142.57;48.87;115900.28;5053799;28;20033;-87
2023/08/17 06:11:06;;;;;;;12.65;3.05;;;;;;;-142.57;48.31;115900.28;5038093;28;20498;-90
2023/08/17 06:13:32;;;;;;;12.77;3.00;;;;;;;-142.57;47.79;115900.28;5044385;28;20068;-85
2023/08/17 06:16:00;;;;;;;6.18;2.92;;;;;;;-142.57;47.57;115900.28;5060605;28;20037;-88
2023/08/17 06:18:26;;;;;;;8.68;3.22;;;;;;;-142.57;46.43;115900.28;5040792;28;20104;-88
2023/08/17 06:20:53;;;;;;;13.65;3.40;;;;;;;-142.57;46.04;115900.28;5035930;28;20029;-86
2023/08/17 06:23:20;;;;;;;7.05;3.17;;;;;;;-142.57;44.93;115900.28;5038832;28;21167;-87
2023/08/17 06:25:46;;;;;;;6.50;2.53;;;;;;;-142.57;46.20;115900.28;5041474;28;20076;-88
2023/08/17 06:28:11;;;;;;;6.07;3.20;;;;;;;-142.57;44.25;115900.28;5042852;28;20057;-86
2023/08/17 06:30:37;;;;;;;5.72;3.22;;;;;;;-142.57;42.82;115900.28;5045865;28;20097;-87
2023/08/17 06:33:06;;;;;;;7.82;3.50;;;;;;;-142.57;44.18;115900.28;5049934;28;20033;-85
2023/08/17 06:35:31;;;;;;;7.07;3.30;;;;;;;-142.57;43.57;115900.28;5057510;28;20024;-88
2023/08/17 06:37:57;;;;;;;8.95;3.42;;;;;;;-142.57;43.00;115900.28;5072060;28;20042;-87
2023/08/17 06:40:24;;;;;;;11.50;3.20;;;;;;;-142.57;40.56;115900.28;5054751;28;20052;-89
2023/08/17 06:42:50;;;;;;;8.27;3.17;;;;;;;-142.57;39.30;115900.28;5058248;28;20045;-88
2023/08/17 06:48:43;;;;;;;9.20;2.90;;;;;;;-142.57;41.09;115900.28;5058811;28;20135;-86
2023/08/17 06:51:12;;;;;;;9.48;3.05;;;;;;;-142.57;38.94;115900.28;5057362;28;20041;-89
2023/08/17 06:53:37;;;;;;;5.88;2.70;;;;;;;-142.57;38.22;115900.28;5055345;28;20017;-85
2023/08/17 06:56:03;;;;;;;5.40;2.88;;;;;;;-142.57;36.57;115900.28;5053981;28;20038;-85
2023/08/17 06:58:28;;;;;;;3.65;2.58;;;;;;;-142.57;37.10;115900.28;5055589;28;20037;-85
2023/08/17 07:01:00;;;;;;;7.55;2.80;;;;;;;-142.57;36.50;115900.28;5055679;28;20041;-88
2023/08/17 07:03:26;;;;;;;5.40;2.83;;;;;;;-142.57;35.54;115900.28;5080725;22;20033;-86
2023/08/17 07:05:54;;;;;;;9.23;2.42;;;;;;;-142.57;34.71;115900.28;5032313;28;20114;-88
2023/08/17 07:08:20;;;;;;;3.88;2.55;;;;;;;-142.57;34.22;115900.28;5013202;28;20038;-87
2023/08/17 07:10:49;;;;;;;4.97;2.67;;;;;;;-142.57;33.82;115900.28;5016536;28;20101;-86
2023/08/17 07:13:20;;;;;;;3.22;2.30;;;;;;;-142.57;32.50;115900.28;5018215;28;20018;-88
2023/08/17 07:15:46;;;;;;;3.65;2.15;;;;;;;-142.57;33.74;115900.28;5015656;28;20057;-87
2023/08/17 07:18:11;;;;;;;5.07;2.65;;;;;;;-142.57;34.18;115900.28;5016988;28;20034;-88
2023/08/17 07:20:37;;;;;;;8.73;2.35;;;;;;;-142.57;33.77;115900.28;5018807;28;20022;-89
2023/08/17 07:23:03;;;;;;;5.25;2.50;;;;;;;-142.57;34.06;115900.28;5018207;28;20042;-87
2023/08/17 07:25:50;;;;;;;5.43;2.55;;;;;;;-142.57;33.46;115900.28;5018733;28;20041;-88
2023/08/17 07:28:16;;;;;;;4.35;2.40;;;;;;;-142.57;33.80;115900.28;5018962;28;20086;-90
2023/08/17 07:30:42;;;;;;;5.32;2.25;;;;;;;-142.57;34.06;115900.28;5018429;28;20010;-85
2023/08/17 07:33:07;;;;;;;3.17;2.20;;;;;;;-142.57;33.25;115900.28;5017304;28;20053;-86
2023/08/17 07:39:23;;;;;;;5.88;2.65;;;;;;;-142.57;33.54;115900.28;5000644;28;20540;-86
2023/08/17 07:41:49;;;;;;;4.43;2.53;;;;;;;-142.57;33.68;115900.28;5000576;28;20030;-86
2023/08/17 07:44:15;;;;;;;4.97;2.30;;;;;;;-142.57;34.26;115900.28;4999095;28;20038;-87
2023/08/17 07:46:41;;;;;;;5.88;3.20;;;;;;;-142.57;34.03;115900.28;4996709;28;20033;-85
2023/08/17 07:49:06;;;;;;;7.75;2.90;;;;;;;-142.57;33.60;115900.28;4998641;28;20469;-87
2023/08/17 07:51:33;;;;;;;6.82;2.72;;;;;;;-142.57;32.87;115900.28;4996885;28;20392;-86
2023/08/17 07:54:02;;;;;;;3.58;2.20;;;;;;;-142.57;32.54;115900.28;4999738;28;20113;-86
2023/08/17 07:56:28;;;;;;;5.85;2.80;;;;;;;-142.57;32.92;115900.28;4999447;28;20157;-87
2023/08/17 07:58:54;;;;;;;5.97;2.85;;;;;;;-142.57;32.46;115900.28;4997306;28;20466;-87
2023/08/17 08:01:20;;;;;;;5.53;2.70;;;;;;;-142.57;32.77;115900.28;4998179;28;20041;-87
2023/08/17 08:03:46;;;;;;;4.22;2.90;;;;;;;-142.57;31.91;115900.28;4999234;28;20030;-87
2023/08/17 08:06:14;;;;;;;6.85;2.80;;;;;;;-142.57;32.38;115900.28;5011730;28;20048;-88
2023/08/17 08:08:40;;;;;;;5.00;2.92;;;;;;;-142.57;32.23;115900.28;5010007;28;20080;-87
2023/08/17 08:11:06;;;;;;;9.85;2.92;;;;;;;-142.57;32.58;115900.28;5008909;28;20022;-90
2023/08/17 08:13:32;;;;;;;5.60;2.58;;;;;;;-142.57;31.55;115900.28;5007794;28;20354;-86
2023/08/17 08:15:59;;;;;;;9.50;2.28;;;;;;;-142.57;31.72;115900.28;5006713;28;20038;-87
2023/08/17 08:18:28;;;;;;;3.65;2.60;;;;;;;-142.57;32.60;115900.28;5025761;28;20516;-87
2023/08/17 08:20:53;;;;;;;10.70;2.95;;;;;;;-142.57;32.70;115900.28;5007420;28;20031;-88
2023/08/17 08:23:19;;;;;;;6.25;2.65;;;;;;;-142.57;33.18;115900.28;5009161;28;20417;-86
2023/08/17 08:25:45;;;;;;;6.15;2.40;;;;;;;-142.57;33.34;115900.28;5006672;28;20042;-87
2023/08/17 08:28:11;;;;;;;4.45;2.38;;;;;;;-142.57;33.07;115900.28;5006757;28;20117;-87
2023/08/17 08:30:36;;;;;;;5.80;2.35;;;;;;;-142.57;32.86;115900.28;5005490;28;20485;-87
2023/08/17 08:33:04;;;;;;;6.00;2.50;;;;;;;-142.57;32.25;115900.28;5005119;28;20049;-88
2023/08/17 08:35:29;;;;;;;8.18;1.85;;;;;;;-142.57;32.59;115900.28;5004400;28;20038;-90
2023/08/17 08:37:59;;;;;;;11.85;2.60;;;;;;;-142.57;32.45;115900.28;5005170;28;20514;-90
2023/08/17 08:40:29;;;;;;;11.13;2.55;;;;;;;-142.57;31.96;115900.28;5004407;28;20053;-88
2023/08/17 08:42:56;;;;;;;11.85;2.47;;;;;;;-142.57;32.37;115900.28;5005552;28;20058;-89
2023/08/17 08:45:23;;;;;;;4.38;1.95;;;;;;;-142.57;31.26;115900.28;5003939;28;20494;-87
2023/08/17 08:47:50;;;;;;;8.98;1.85;;;;;;;-142.57;31.64;115900.28;5010584;28;20038;-91
2023/08/17 08:50:26;;;;;;;7.22;1.95;;;;;;;-142.57;32.05;115900.28;5018695;28;20039;-86
2023/08/17 08:53:09;;;;;;;7.65;2.30;;;;;;;-142.57;31.89;115900.28;5020391;28;20069;-88
2023/08/17 08:56:01;;;;;;;6.97;1.90;;;;;;;-142.57;31.94;115900.28;5019914;28;20034;-90
2023/08/17 08:58:29;;;;;;;5.90;2.20;;;;;;;-142.57;32.24;115900.28;5014199;28;20101;-88
2023/08/17 09:00:57;;;;;;;8.90;2.78;;;;;;;-142.57;31.73;115900.28;5006704;28;20031;-88
2023/08/17 09:03:27;;;;;;;11.25;2.58;;;;;;;-142.57;32.04;115900.28;5011865;28;20516;-87
2023/08/17 09:05:55;;;;;;;5.00;2.08;;;;;;;-142.57;32.40;115900.28;4996338;28;20086;-83
2023/08/17 09:08:22;;;;;;;6.28;1.95;;;;;;;-142.57;32.02;115900.28;4990860;28;20030;-83
2023/08/17 09:10:49;;;;;;;7.68;2.35;;;;;;;-142.57;31.50;115900.28;4989356;28;20524;-89
2023/08/17 09:13:14;;;;;;;6.25;2.45;;;;;;;-142.57;31.54;115900.28;5001765;28;20041;-84
2023/08/17 09:15:40;;;;;;;9.27;2.50;;;;;;;-142.57;31.62;115900.28;5000762;28;20035;-85
2023/08/17 09:18:09;;;;;;;6.63;2.25;;;;;;;-142.57;32.13;115900.28;5002290;28;20035;-85
2023/08/17 09:20:39;;;;;;;10.18;2.30;;;;;;;-142.57;31.63;115900.28;5002633;28;20034;-83
2023/08/17 09:23:09;;;;;;;5.65;2.60;;;;;;;-142.57;31.79;115900.28;5001281;28;20049;-87
2023/08/17 09:25:34;;;;;;;10.52;2.83;;;;;;;-142.57;31.54;115900.28;4999987;28;20027;-86
2023/08/17 09:28:09;;;;;;;13.20;2.70;;;;;;;-142.57;31.72;115900.28;5001997;28;20034;-86
2023/08/17 09:31:04;;;;;;;5.95;2.60;;;;;;;-142.57;31.83;115900.28;5003125;28;20042;-86
2023/08/17 09:33:31;;;;;;;15.25;2.67;;;;;;;-142.57;31.54;115900.28;4985921;28;20030;-87
2023/08/17 09:35:58;;;;;;;4.13;2.70;;;;;;;-142.57;31.91;115900.28;5003276;28;20102;-88
2023/08/17 09:38:24;;;;;;;7.05;2.65;;;;;;;-142.57;32.00;115900.28;5005630;28;20038;-87
2023/08/17 09:40:52;;;;;;;5.43;2.78;;;;;;;-142.57;31.34;115900.28;5016608;28;20010;-86
2023/08/17 09:43:20;;;;;;;7.82;2.50;;;;;;;-142.57;31.30;115900.28;5019862;28;20034;-85
2023/08/17 09:45:49;;;;;;;7.57;2.58;;;;;;;-142.57;31.19;115900.28;5019441;28;20102;-87
2023/08/17 09:48:17;;;;;;;7.32;2.70;;;;;;;-142.57;31.16;115900.28;5019266;28;20019;-88
2023/08/17 09:50:45;;;;;;;8.63;2.92;;;;;;;-142.57;31.37;115900.28;5020117;28;20030;-84
2023/08/17 09:53:15;;;;;;;10.23;3.15;;;;;;;-142.57;31.13;115900.28;5018890;28;20038;-85
2023/08/17 09:55:43;;;;;;;8.93;2.75;;;;;;;-142.57;31.94;115900.28;5016690;28;20106;-85
2023/08/17 09:58:14;;;;;;;3.88;2.90;;;;;;;-142.57;32.38;115900.28;5015020;28;20046;-85
2023/08/17 10:00:47;;;;;;;16.45;2.85;;;;;;;-142.57;31.73;115900.28;5017248;28;20069;-84
2023/08/17 10:03:14;;;;;;;5.70;3.28;;;;;;;-142.57;31.53;115900.28;5011265;28;20031;-85
2023/08/17 10:05:42;;;;;;;12.52;3.47;;;;;;;-142.57;31.25;115900.28;5013052;28;20041;-84
2023/08/17 10:08:10;;;;;;;9.48;3.58;;;;;;;-142.57;31.11;115900.28;5017185;28;20094;-84
2023/08/17 10:10:43;;;;;;;8.63;2.80;;;;;;;-142.57;31.12;115900.28;5000255;28;20042;-85
2023/08/17 10:13:10;;;;;;;9.40;3.20;;;;;;;-142.57;30.19;115900.28;5016352;28;20109;-83
2023/08/17 10:15:55;;;;;;;10.63;3.20;;;;;;;-142.57;30.21;115900.28;5016539;28;20034;-88
2023/08/17 10:18:24;;;;;;;;;;;;;;;-142.57;30.50;115900.28;5018273;28;20038;-84
2023/08/17 10:21:07;;;;;;;8.05;3.35;;;;;;;-142.57;30.97;115900.28;5017018;28;19917;-85
2023/08/17 10:23:34;;;;;;;11.05;3.80;;;;;;;-142.57;31.25;115900.28;5016542;28;20077;-82
2023/08/17 10:26:04;;;;;;;9.00;3.40;;;;;;;-142.57;31.00;115900.28;5017111;28;20035;-84
2023/08/17 10:28:34;;;;;;;8.48;3.50;;;;;;;-142.57;31.13;115900.28;5014883;28;20030;-85
2023/08/17 10:30:59;;;;;;;11.90;3.20;;;;;;;-142.57;31.00;115900.28;5010213;28;20060;-83
2023/08/17 10:33:26;;;;;;;7.97;3.65;;;;;;;-142.57;30.06;115900.28;4998978;28;20428;-85
2023/08/17 10:35:55;;;;;;;8.73;3.47;;;;;;;-142.57;30.24;115900.28;4997275;28;20046;-83
2023/08/17 10:38:21;;;;;;;7.88;2.97;;;;;;;-142.57;31.01;115900.28;4998603;28;20477;-84
2023/08/17 10:41:11;;;;;;;6.53;3.30;;;;;;;-142.57;31.04;115900.28;5002289;28;20030;-85
2023/08/17 10:44:18;;;;;;;5.25;3.00;;;;;;;-142.57;30.28;115900.28;5004069;28;20048;-84
2023/08/17 10:46:45;;;;;;;12.93;4.05;;;;;;;-142.57;30.58;115900.28;5013039;28;20555;-85
2023/08/17 10:49:27;;;;;;;6.80;3.42;;;;;;;-142.57;30.81;115900.28;5017642;28;20056;-86
2023/08/17 10:52:02;;;;;;;;;;;;;;;-142.57;30.69;115900.28;5013584;28;20505;-88
2023/08/17 10:54:37;;;;;;;12.15;3.47;;;;;;;-142.57;30.59;115900.28;5012260;28;19917;-88
2023/08/17 10:57:32;;;;;;;13.10;3.80;;;;;;;-142.57;29.87;115900.28;5011888;28;20042;-87
2023/08/17 11:00:27;;;;;;;8.38;3.83;;;;;;;-142.57;30.58;115900.28;5014149;28;20030;-87
2023/08/17 11:03:05;;;;;;;8.90;3.42;;;;;;;-142.57;30.69;115900.28;5012046;28;20094;-85
2023/08/17 11:05:39;;;;;;;8.02;4.03;;;;;;;-142.57;30.63;115900.28;5006059;28;20039;-85
2023/08/17 11:08:19;;;;;;;5.45;3.75;;;;;;;-142.57;31.02;115900.28;5004248;28;20617;-89
2023/08/17 11:10:49;;;;;;;10.55;4.07;;;;;;;-142.57;30.71;115900.28;5006112;28;20039;-84
2023/08/17 11:13:14;;;;;;;12.30;4.57;;;;;;;-142.57;31.38;115900.28;5003859;28;20093;-89
2023/08/17 11:15:44;;;;;;;8.07;3.50;;;;;;;-142.57;31.08;115900.28;5006375;28;20392;-87